Flight Track Log - Related Links

Times and Time Zones

All times are in EDT time to prevent confusion due to time zone crossing. See the EJA831 flight status page for this flight to view local times or setup timezone preferences in your user account.

Time Position Orientation Groundspeed Altitude Reporting Facility
EDT Latitude Longitude Course Direction KTS MPH feet Rate Location/Type
Mon 09:55:08 PM 35.6372 -106.0636 163° South 179 206 7,800  Level Albuquerque Center
Mon 09:56:09 PM 35.5983 -106.0275 143° Southeast 198 228 10,900 2,244 Climbing Albuquerque Center
Mon 09:57:11 PM 35.5269 -106.0153 172° South 247 284 12,400 1,951 Climbing Albuquerque Center
Mon 09:58:12 PM 35.4397 -105.9986 171° South 303 349 14,900 2,244 Climbing Albuquerque Center
Mon 09:59:00 PM 35.0258 -105.9077 163° South  Level FlightAware Approximate
Mon 09:59:14 PM 35.3539 -105.9836 172° South 310 357 17,000  Level Albuquerque Center
Mon 10:00:00 PM 34.9420 -105.8769 163° South  Level FlightAware Approximate
Mon 10:00:15 PM 35.2358 -105.9658 173° South 351 404 17,000  Level Albuquerque Center
Mon 10:01:17 PM 35.1342 -105.9500 173° South 364 419 17,000  Level Albuquerque Center
Mon 10:02:18 PM 35.0453 -105.8881 150° Southeast 373 429 17,000  Level Albuquerque Center
Mon 10:03:20 PM 34.9558 -105.8231 149° Southeast 372 428 17,000  Level Albuquerque Center
Mon 10:04:22 PM 34.8675 -105.7558 148° Southeast 375 432 17,000  Level Albuquerque Center
Mon 10:05:23 PM 34.7675 -105.6792 148° Southeast 377 434 17,000  Level Albuquerque Center
Mon 10:06:25 PM 34.6786 -105.6122 148° Southeast 374 430 17,000  Level Albuquerque Center
Mon 10:07:26 PM 34.5900 -105.5453 148° Southeast 373 429 17,000  Level Albuquerque Center
Mon 10:08:28 PM 34.5014 -105.4794 149° Southeast 372 428 17,000  Level Albuquerque Center
Mon 10:09:29 PM 34.4131 -105.4122 148° Southeast 372 428 17,000 49 Level Albuquerque Center
Mon 10:10:31 PM 34.3256 -105.3469 148° Southeast 368 423 17,100 -49 Climbing Albuquerque Center
Mon 10:11:32 PM 34.2381 -105.2825 149° Southeast 366 421 16,900 -98 Descending Albuquerque Center
Mon 10:12:34 PM 34.1503 -105.2175 148° Southeast 367 422 16,900  Level Albuquerque Center
Mon 10:13:36 PM 34.0619 -105.1508 148° Southeast 369 425 16,900 49 Level Albuquerque Center
Mon 10:14:37 PM 33.9606 -105.0789 150° Southeast 370 426 17,000 49 Climbing Albuquerque Center
Mon 10:15:39 PM 33.8747 -105.0128 147° Southeast 367 422 17,000 -49 Level Albuquerque Center
Mon 10:16:40 PM 33.7828 -104.9461 149° Southeast 357 411 16,900 -976 Descending Albuquerque Center
Mon 10:17:42 PM 33.7125 -104.8958 149° Southeast 295 339 15,000 -2,488 Descending Albuquerque Center
Mon 10:18:43 PM 33.6419 -104.8442 149° Southeast 299 344 11,800 -3,024 Descending Albuquerque Center
Mon 10:19:45 PM 33.5667 -104.7906 149° Southeast 293 337 8,800 -2,439 Descending Albuquerque Center
Mon 10:20:46 PM 33.5039 -104.7444 149° Southeast 270 311 6,800 -1,366 Descending Albuquerque Center
Mon 10:21:48 PM 33.4592 -104.6961 138° Southeast 223 257 6,000 -390 Descending Albuquerque Center
Mon 10:22:49 PM 33.4317 -104.6350 118° Southeast 195 224 6,000 -293 Level Albuquerque Center
Mon 10:23:51 PM 33.4139 -104.5811 112° Southeast 179 206 5,400 -390 Descending Albuquerque Center
Mon 10:24:52 PM 33.3953 -104.5264 112° Southeast 176 203 5,200 -244 Descending Albuquerque Center
Mon 10:25:54 PM 33.3711 -104.4819 123° Southeast 146 168 4,900 -439 Descending Albuquerque Center
Mon 10:26:55 PM 33.3361 -104.4781 175° South 130 150 4,300 -585 Descending Albuquerque Center
Mon 10:27:57 PM 33.3114 -104.5061 223° Southwest 123 142 3,700 -581 Descending Albuquerque Center
Mon 10:29:00 PM 33.3000 -104.5167 90° East  Level FlightAware Approximate
Mon 10:36:00 PM 33.3016 -104.5306 90° East  Level Estimated

Login

Don't have an account? Register now (free) for customized features, flight alerts, and more!